Flight Track Log - Related Links

Times and Time Zones

All times are in EDT time to prevent confusion due to time zone crossing. See the SCX342 flight status page for this flight to view local times or setup timezone preferences in your user account.

Time Position Orientation Groundspeed Altitude Reporting Facility
EDT Latitude Longitude Course Direction KTS MPH feet Rate Location/Type
Fri 12:04:44 PM 28.4500 -81.3167 360° North 168 193 900  Level Orlando TRACON
Fri 12:05:32 PM 28.4833 -81.3167 360° North 191 220 2,400 2,278 Climbing Orlando TRACON
Fri 12:06:32 PM 28.5500 -81.3167 360° North 255 293 5,000 2,817 Climbing Orlando TRACON
Fri 12:07:27 PM 28.5833 -81.3833 300° West 284 327 7,800 1,565 Climbing Orlando TRACON
Fri 12:08:27 PM 28.5833 -81.4667 270° West 276 318 8,000 1,125 Climbing Orlando TRACON
Fri 12:10:07 PM 28.5211 -81.5908 240° Southwest 295 339 10,800 1,763 Climbing Jacksonville Center
Fri 12:11:07 PM 28.4761 -81.6858 242° Southwest 319 367 12,700 2,550 Climbing Jacksonville Center
Fri 12:12:07 PM 28.4122 -81.7928 236° Southwest 364 419 15,900 2,600 Climbing Jacksonville Center
Fri 12:13:07 PM 28.3653 -81.9017 244° Southwest 376 433 17,900 2,150 Climbing Jacksonville Center
Fri 12:14:07 PM 28.3869 -82.0172 282° West 362 417 20,200 2,200 Climbing Jacksonville Center
Fri 12:15:07 PM 28.4272 -82.1325 292° West 372 428 22,300 1,950 Climbing Jacksonville Center
Fri 12:16:07 PM 28.4781 -82.2478 297° West 378 435 24,100 1,750 Climbing Jacksonville Center
Fri 12:17:07 PM 28.5786 -82.3181 328° Northwest 390 449 25,800 1,550 Climbing Jacksonville Center
Fri 12:18:07 PM 28.6853 -82.3839 332° Northwest 405 466 27,200 1,400 Climbing Jacksonville Center
Fri 12:19:07 PM 28.7897 -82.4447 333° Northwest 417 480 28,600 1,900 Climbing Jacksonville Center
Fri 12:20:07 PM 28.8964 -82.5083 332° Northwest 428 493 31,000 1,850 Climbing Jacksonville Center
Fri 12:21:07 PM 28.9989 -82.5719 332° Northwest 428 493 32,300 1,150 Climbing Jacksonville Center
Fri 12:22:07 PM 29.1033 -82.6358 332° Northwest 422 486 33,300 1,050 Climbing Jacksonville Center
Fri 12:23:07 PM 29.2078 -82.6975 333° Northwest 417 480 34,400 1,100 Climbing Jacksonville Center
Fri 12:24:07 PM 29.3125 -82.7592 333° Northwest 417 480 35,500 1,100 Climbing Jacksonville Center
Fri 12:25:07 PM 29.4147 -82.8211 332° Northwest 412 474 36,600 950 Climbing Jacksonville Center
Fri 12:26:07 PM 29.5211 -82.8903 331° Northwest 419 482 37,400 650 Climbing Jacksonville Center
Fri 12:27:07 PM 29.6233 -82.9500 333° Northwest 419 482 37,900 300 Climbing Jacksonville Center
Fri 12:28:07 PM 29.7258 -83.0122 332° Northwest 419 482 38,000 50 Climbing Jacksonville Center
Fri 12:29:07 PM 29.8258 -83.0722 333° Northwest 409 471 38,000  Level Jacksonville Center
Fri 12:30:07 PM 29.9261 -83.1347 332° Northwest 409 471 38,000 -50 Level Jacksonville Center
Fri 12:31:07 PM 30.0261 -83.1972 332° Northwest 401 461 37,900  Descending Jacksonville Center
Fri 12:32:07 PM 30.1158 -83.2481 334° Northwest 401 461 38,000  Climbing Jacksonville Center
Fri 12:33:07 PM 30.2158 -83.3108 332° Northwest 401 461 37,900  Descending Jacksonville Center
Fri 12:34:07 PM 30.3136 -83.3714 332° Northwest 401 461 38,000 50 Climbing Jacksonville Center
Fri 12:35:07 PM 30.4158 -83.4322 333° Northwest 401 461 38,000 -50 Level Jacksonville Center
Fri 12:36:07 PM 30.5114 -83.4931 331° Northwest 401 461 37,900  Descending Jacksonville Center
Fri 12:37:07 PM 30.6114 -83.5564 331° Northwest 401 461 38,000 50 Climbing Jacksonville Center
Fri 12:38:07 PM 30.7175 -83.6272 330° Northwest 395 455 38,000  Level Jacksonville Center
Fri 12:39:07 PM 30.8172 -83.6861 333° Northwest 395 455 38,000  Level Jacksonville Center
Fri 12:40:07 PM 30.9150 -83.7472 332° Northwest 395 455 38,000  Level Jacksonville Center
Fri 12:41:07 PM 31.0128 -83.8089 332° Northwest 395 455 38,000  Level Jacksonville Center
Fri 12:42:07 PM 31.1106 -83.8706 332° Northwest 400 460 38,000  Level Jacksonville Center
Fri 12:43:56 PM 31.2875 -83.9831 331° Northwest 399 459 38,000  Level Atlanta Center
Fri 12:44:56 PM 31.3856 -84.0461 331° Northwest 399 459 38,000  Level Atlanta Center
Fri 12:45:56 PM 31.4836 -84.1069 332° Northwest 399 459 38,000  Level Atlanta Center
Fri 12:46:56 PM 31.5794 -84.1681 331° Northwest 399 459 38,000  Level Atlanta Center
Fri 12:47:56 PM 31.6756 -84.2292 332° Northwest 399 459 38,000  Level Atlanta Center
Fri 12:48:56 PM 31.7756 -84.2931 331° Northwest 399 459 38,000  Level Atlanta Center
Fri 12:49:56 PM 31.8736 -84.3544 332° Northwest 399 459 38,000  Level Atlanta Center
Fri 12:50:56 PM 31.9611 -84.4108 331° Northwest 399 459 38,000  Level Atlanta Center
Fri 12:51:56 PM 32.0589 -84.4775 330° Northwest 399 459 38,000  Level Atlanta Center
Fri 12:52:56 PM 32.1589 -84.5417 331° Northwest 399 459 38,000  Level Atlanta Center
Fri 12:53:56 PM 32.2608 -84.6061 332° Northwest 399 459 38,000  Level Atlanta Center
Fri 12:54:56 PM 32.3586 -84.6733 330° Northwest 399 459 38,000  Level Atlanta Center
Fri 12:55:56 PM 32.4606 -84.7381 332° Northwest 404 465 38,000  Level Atlanta Center
Fri 12:56:56 PM 32.5603 -84.8028 331° Northwest 404 465 38,000  Level Atlanta Center
Fri 12:57:56 PM 32.6644 -84.8606 335° Northwest 404 465 38,000  Level Atlanta Center
Fri 12:58:56 PM 32.7600 -84.9256 330° Northwest 410 472 38,000  Level Atlanta Center
Fri 12:59:56 PM 32.8617 -85.0008 328° Northwest 417 480 38,000  Level Atlanta Center
Fri 01:00:56 PM 32.9697 -85.0714 331° Northwest 417 480 38,000  Level Atlanta Center
Fri 01:01:56 PM 33.0692 -85.1394 330° Northwest 412 474 38,000  Level Atlanta Center
Fri 01:02:56 PM 33.1667 -85.2003 332° Northwest 402 463 38,000  Level Atlanta Center
Fri 01:03:56 PM 33.2664 -85.2661 331° Northwest 402 463 38,000  Level Atlanta Center
Fri 01:04:56 PM 33.3575 -85.3444 324° Northwest 397 457 38,000  Level Atlanta Center
Fri 01:05:56 PM 33.4419 -85.4306 320° Northwest 399 459 38,000  Level Atlanta Center
Fri 01:06:56 PM 33.5225 -85.5189 318° Northwest 394 453 38,000  Level Atlanta Center
Fri 01:07:56 PM 33.5967 -85.5950 319° Northwest 394 453 38,000  Level Atlanta Center
Fri 01:08:56 PM 33.6808 -85.6864 318° Northwest 394 453 38,000  Level Atlanta Center
Fri 01:09:56 PM 33.7653 -85.7731 320° Northwest 394 453 38,000  Level Atlanta Center
Fri 01:10:56 PM 33.8414 -85.8544 318° Northwest 376 433 38,000  Level Atlanta Center
Fri 01:11:56 PM 33.9236 -85.9439 318° Northwest 381 438 38,000  Level Atlanta Center
Fri 01:12:56 PM 34.0058 -86.0258 320° Northwest 387 445 38,000  Level Atlanta Center
Fri 01:13:56 PM 34.1069 -86.0886 333° Northwest 387 445 38,000  Level Atlanta Center
Fri 01:14:56 PM 34.2039 -86.1536 331° Northwest 393 452 38,000  Level Atlanta Center
Fri 01:15:56 PM 34.3031 -86.2164 332° Northwest 398 458 38,000  Level Atlanta Center
Fri 01:16:56 PM 34.4019 -86.2844 330° Northwest 398 458 38,000  Level Atlanta Center
Fri 01:17:56 PM 34.5011 -86.3475 332° Northwest 398 458 38,000  Level Atlanta Center
Fri 01:18:56 PM 34.6019 -86.4161 331° Northwest 404 465 38,000  Level Atlanta Center
Fri 01:19:56 PM 34.7008 -86.4794 332° Northwest 404 465 38,000  Level Atlanta Center
Fri 01:20:56 PM 34.7997 -86.5481 330° Northwest 404 465 38,000  Level Atlanta Center
Fri 01:22:11 PM 34.9264 -86.6339 331° Northwest 391 450 38,000  Level Memphis Center
Fri 01:23:11 PM 35.0264 -86.7006 331° Northwest 391 450 38,000  Level Memphis Center
Fri 01:24:11 PM 35.1117 -86.7603 330° Northwest 397 457 38,000  Level Memphis Center
Fri 01:25:11 PM 35.2094 -86.8272 331° Northwest 397 457 38,000  Level Memphis Center
Fri 01:26:11 PM 35.3219 -86.8986 333° Northwest 408 470 38,000  Level Memphis Center
Fri 01:27:11 PM 35.4072 -86.9614 329° Northwest 408 470 38,000  Level Memphis Center
Fri 01:28:11 PM 35.5069 -87.0286 331° Northwest 408 470 38,000  Level Memphis Center
Fri 01:29:11 PM 35.6089 -87.0961 332° Northwest 413 475 38,000  Level Memphis Center
Fri 01:30:11 PM 35.7153 -87.1711 330° Northwest 408 470 38,000  Level Memphis Center
Fri 01:31:11 PM 35.8150 -87.2417 330° Northwest 408 470 38,000  Level Memphis Center
Fri 01:32:11 PM 35.9147 -87.3094 331° Northwest 408 470 38,000  Level Memphis Center
Fri 01:33:11 PM 36.0142 -87.3750 332° Northwest 408 470 38,000  Level Memphis Center
Fri 01:34:11 PM 36.1117 -87.4436 330° Northwest 403 464 38,000  Level Memphis Center
Fri 01:35:11 PM 36.2092 -87.5119 331° Northwest 403 464 38,000  Level Memphis Center
Fri 01:36:11 PM 36.2983 -87.5733 331° Northwest 408 470 38,000  Level Memphis Center
Fri 01:37:11 PM 36.3978 -87.6394 332° Northwest 408 470 38,000  Level Memphis Center
Fri 01:38:11 PM 36.4950 -87.7111 329° Northwest 408 470 38,000  Level Memphis Center
Fri 01:39:11 PM 36.5922 -87.7750 332° Northwest 408 470 38,000  Level Memphis Center
Fri 01:40:11 PM 36.6897 -87.8469 329° Northwest 408 470 38,000  Level Memphis Center
Fri 01:41:11 PM 36.7953 -87.9214 331° Northwest 408 470 38,000  Level Memphis Center
Fri 01:42:11 PM 36.8947 -87.9911 331° Northwest 413 475 38,000  Level Memphis Center
Fri 01:43:10 PM 36.9897 -88.0583 331° Northwest 408 470 38,000  Level Memphis Center
Fri 01:44:11 PM 37.0783 -88.1156 333° Northwest 408 470 38,000  Level Memphis Center
Fri 01:45:10 PM 37.1733 -88.1833 330° Northwest 408 470 38,000  Level Memphis Center
Fri 01:46:11 PM 37.2683 -88.2561 329° Northwest 408 470 38,000  Level Memphis Center
Fri 01:47:46 PM 37.4183 -88.3625 331° Northwest 396 456 38,000  Level Kansas City Center
Fri 01:48:48 PM 37.5239 -88.4400 330° Northwest 396 456 38,000  Level Kansas City Center
Fri 01:49:50 PM 37.6203 -88.5097 330° Northwest 396 456 38,000  Level Kansas City Center
Fri 01:50:52 PM 37.7164 -88.5781 331° Northwest 395 455 38,000  Level Kansas City Center
Fri 01:51:54 PM 37.8122 -88.6492 330° Northwest 396 456 38,000  Level Kansas City Center
Fri 01:52:56 PM 37.9106 -88.7189 331° Northwest 399 459 38,000  Level Kansas City Center
Fri 01:53:58 PM 38.0072 -88.7903 330° Northwest 401 461 38,000  Level Kansas City Center
Fri 01:55:00 PM 38.1033 -88.8603 330° Northwest 401 461 38,000  Level Kansas City Center
Fri 01:56:02 PM 38.2189 -88.9450 330° Northwest 400 460 38,000  Level Kansas City Center
Fri 01:57:04 PM 38.3144 -89.0169 329° Northwest 401 461 38,000  Level Kansas City Center
Fri 01:58:06 PM 38.4158 -89.0933 329° Northwest 401 461 38,000  Level Kansas City Center
Fri 01:59:08 PM 38.5192 -89.1703 330° Northwest 401 461 38,000  Level Kansas City Center
Fri 02:00:10 PM 38.6156 -89.2417 330° Northwest 402 463 38,000  Level Kansas City Center
Fri 02:01:12 PM 38.7183 -89.3183 330° Northwest 400 460 38,000  Level Kansas City Center
Fri 02:02:14 PM 38.8131 -89.3897 330° Northwest 398 458 38,000  Level Kansas City Center
Fri 02:03:16 PM 38.9161 -89.4669 330° Northwest 399 459 38,000  Level Kansas City Center
Fri 02:04:18 PM 39.0111 -89.5394 329° Northwest 399 459 38,000  Level Kansas City Center
Fri 02:05:20 PM 39.1147 -89.6178 330° Northwest 401 461 38,000  Level Kansas City Center
Fri 02:06:22 PM 39.2117 -89.6922 329° Northwest 399 459 38,000  Level Kansas City Center
Fri 02:07:25 PM 39.3053 -89.7622 330° Northwest 394 453 38,000  Level Kansas City Center
Fri 02:08:27 PM 39.3994 -89.8336 330° Northwest 394 453 38,000  Level Kansas City Center
Fri 02:09:29 PM 39.4919 -89.9047 329° Northwest 390 449 38,000  Level Kansas City Center
Fri 02:10:31 PM 39.5853 -89.9778 329° Northwest 392 451 38,000  Level Kansas City Center
Fri 02:11:33 PM 39.6775 -90.0506 329° Northwest 391 450 38,000  Level Kansas City Center
Fri 02:12:35 PM 39.7894 -90.1356 330° Northwest 389 448 38,000  Level Kansas City Center
Fri 02:13:37 PM 39.8833 -90.2097 329° Northwest 391 450 38,000  Level Kansas City Center
Fri 02:14:39 PM 39.9792 -90.2850 329° Northwest 397 457 38,000  Level Kansas City Center
Fri 02:15:41 PM 40.0739 -90.3592 329° Northwest 397 457 38,000  Level Kansas City Center
Fri 02:16:43 PM 40.1686 -90.4350 329° Northwest 397 457 38,000  Level Kansas City Center
Fri 02:17:45 PM 40.2631 -90.5100 329° Northwest 396 456 38,000  Level Kansas City Center
Fri 02:18:47 PM 40.3558 -90.5836 329° Northwest 391 450 38,000  Level Kansas City Center
Fri 02:19:49 PM 40.4686 -90.6725 329° Northwest 392 451 38,000  Level Kansas City Center
Fri 02:20:51 PM 40.5611 -90.7469 329° Northwest 390 449 38,000  Level Kansas City Center
Fri 02:21:53 PM 40.6550 -90.8217 329° Northwest 391 450 38,000  Level Kansas City Center
Fri 02:22:55 PM 40.7478 -90.8964 329° Northwest 391 450 38,000  Level Kansas City Center
Fri 02:23:57 PM 40.8411 -90.9717 329° Northwest 391 450 38,000  Level Kansas City Center
Fri 02:24:59 PM 40.9367 -91.0478 329° Northwest 395 455 38,000 -96 Level Kansas City Center
Fri 02:26:02 PM 41.0308 -91.1242 329° Northwest 396 456 37,800 -556 Descending Kansas City Center
Fri 02:27:30 PM 41.1817 -91.2472 328° Northwest 396 456 36,600 -720 Descending Chicago Center
Fri 02:28:32 PM 41.2714 -91.3208 328° Northwest 395 455 36,000 -290 Descending Chicago Center
Fri 02:29:34 PM 41.3653 -91.3969 329° Northwest 397 457 36,000  Level Chicago Center
Fri 02:30:36 PM 41.4756 -91.4900 328° Northwest 393 452 36,000  Level Chicago Center
Fri 02:31:38 PM 41.5669 -91.5636 329° Northwest 388 447 36,000  Level Chicago Center
Fri 02:32:41 PM 41.6581 -91.6397 328° Northwest 388 447 36,000  Level Chicago Center
Fri 02:33:43 PM 41.7489 -91.7158 328° Northwest 387 445 36,000  Level Chicago Center
Fri 02:34:45 PM 41.8392 -91.7903 328° Northwest 385 443 36,000  Level Chicago Center
Fri 02:35:47 PM 41.9297 -91.8683 327° Northwest 387 445 36,000 -145 Level Chicago Center
Fri 02:36:49 PM 42.0400 -91.9597 328° Northwest 390 449 35,700 -532 Descending Chicago Center
Fri 02:37:51 PM 42.1319 -92.0361 328° Northwest 390 449 34,900 -774 Descending Chicago Center
Fri 02:38:53 PM 42.2258 -92.1158 328° Northwest 398 458 34,100 -774 Descending Chicago Center
Fri 02:39:55 PM 42.3208 -92.1975 328° Northwest 403 464 33,300 -532 Descending Chicago Center
Fri 02:40:57 PM 42.4136 -92.2781 327° Northwest 399 459 33,000 -194 Descending Chicago Center
Fri 02:41:59 PM 42.5239 -92.3728 328° Northwest 393 452 32,900 -387 Descending Chicago Center
Fri 02:43:01 PM 42.6136 -92.4508 327° Northwest 387 445 32,200 -432 Descending Chicago Center
Fri 02:44:04 PM 42.7022 -92.5342 325° Northwest 387 445 32,000 -96 Descending Chicago Center
Fri 02:45:06 PM 42.7931 -92.6167 326° Northwest 390 449 32,000  Level Chicago Center
Fri 02:45:46 PM 42.8686 -92.6722 332° Northwest 389 448 32,000  Level Minneapolis Center
Fri 02:46:49 PM 42.9714 -92.7256 339° North 394 453 32,000  Level Minneapolis Center
Fri 02:47:51 PM 43.0722 -92.7783 339° North 391 450 32,000 -339 Level Minneapolis Center
Fri 02:48:53 PM 43.1747 -92.8319 339° North 394 453 31,300 -1,355 Descending Minneapolis Center
Fri 02:49:55 PM 43.2750 -92.8844 339° North 391 450 29,200 -1,984 Descending Minneapolis Center
Fri 02:50:57 PM 43.3717 -92.9333 340° North 376 433 27,200 -2,032 Descending Minneapolis Center
Fri 02:51:59 PM 43.4822 -92.9911 339° North 359 413 25,000 -1,984 Descending Minneapolis Center
Fri 02:53:01 PM 43.5686 -93.0392 338° Northwest 343 395 23,100 -1,742 Descending Minneapolis Center
Fri 02:54:03 PM 43.6525 -93.0847 339° North 332 382 21,400 -1,500 Descending Minneapolis Center
Fri 02:55:05 PM 43.7328 -93.1283 339° North 318 366 20,000 -1,258 Descending Minneapolis Center
Fri 02:56:07 PM 43.8317 -93.1767 341° North 332 382 18,800 -1,452 Descending Minneapolis Center
Fri 02:57:09 PM 43.9181 -93.2233 339° North 334 384 17,000 -1,839 Descending Minneapolis Center
Fri 02:58:11 PM 44.0050 -93.2464 349° North 326 375 15,000 -1,968 Descending Minneapolis Center
Fri 02:59:14 PM 44.0944 -93.2356 North 323 372 12,900 -2,112 Descending Minneapolis Center
Fri 03:00:16 PM 44.1983 -93.2253 North 314 361 10,600 -1,403 Descending Minneapolis Center
Fri 03:01:18 PM 44.2856 -93.2161 North 314 361 10,000 -290 Descending Minneapolis Center
Fri 03:02:20 PM 44.3731 -93.2081 North 315 362 10,000  Level Minneapolis Center
Fri 03:03:22 PM 44.4614 -93.1994 North 318 366 10,000  Level Minneapolis Center
Fri 03:04:24 PM 44.5489 -93.1903 North 317 365 10,000  Level Minneapolis Center
Fri 03:05:26 PM 44.6347 -93.1878 North 312 359 10,000 -339 Level Minneapolis Center
Fri 03:06:28 PM 44.7175 -93.2367 337° Northwest 262 302 9,300 -968 Descending Minneapolis Center
Fri 03:07:30 PM 44.7731 -93.2717 336° Northwest 254 292 8,000 -629 Descending Minneapolis Center
Fri 03:08:32 PM 44.8372 -93.3403 323° Northwest 243 280 8,000 -581 Level Minneapolis Center
Fri 03:09:34 PM 44.8764 -93.4131 307° West 235 270 6,800 -1,016 Descending Minneapolis Center
Fri 03:10:36 PM 44.9114 -93.4706 311° West 197 227 5,900 -1,065 Descending Minneapolis Center
Fri 03:11:38 PM 44.9461 -93.4261 42° Northeast 216 249 4,600 -1,258 Descending Minneapolis Center
Fri 03:12:40 PM 44.9389 -93.3478 97° East 204 235 3,300 -1,258 Descending Minneapolis Center
Fri 03:13:42 PM 44.9133 -93.2933 124° Southeast 167 192 2,000 -1,258 Descending Minneapolis Center
Fri 03:15:00 PM 44.8820 -93.2218 101° East  Level Estimated
Fri 03:22:00 PM 44.8820 -93.2218 101° East  Level Estimated

Login

Don't have an account? Register now (free) for customized features, flight alerts, and more!